createdAt,value
2023-01-12T00:00:18.172Z,73.59
2023-01-12T00:04:19.869Z,73.10
2023-01-12T00:08:21.360Z,72.76
2023-01-12T00:12:22.945Z,73.30
2023-01-12T00:16:43.251Z,73.33
2023-01-12T00:20:48.747Z,73.89
2023-01-12T00:24:52.403Z,73.79
2023-01-12T00:28:54.096Z,73.75
2023-01-12T00:32:55.689Z,74.04
2023-01-12T00:37:00.641Z,74.38
2023-01-12T00:41:09.701Z,75.57
2023-01-12T00:45:24.122Z,75.76
2023-01-12T00:49:25.882Z,75.04
2023-01-12T00:53:27.465Z,72.25
2023-01-12T00:57:29.490Z,70.65
2023-01-12T01:01:33.501Z,70.35
2023-01-12T01:05:35.070Z,69.93
2023-01-12T01:09:36.664Z,69.20
2023-01-12T01:13:43.986Z,69.24
2023-01-12T01:17:45.483Z,68.20
2023-01-12T01:21:47.025Z,67.54
2023-01-12T01:25:48.609Z,68.35
2023-01-12T01:29:50.106Z,66.69
2023-01-12T01:33:52.177Z,66.96
2023-01-12T01:37:53.754Z,66.79
2023-01-12T01:41:55.313Z,66.72
2023-01-12T01:46:06.298Z,66.49
2023-01-12T01:50:19.758Z,67.54
2023-01-12T01:54:22.929Z,67.47
2023-01-12T01:58:48.816Z,67.04
2023-01-12T02:02:51.291Z,66.33
2023-01-12T02:06:55.814Z,66.23
2023-01-12T02:11:00.265Z,65.75
2023-01-12T02:15:20.825Z,65.79
2023-01-12T02:19:45.336Z,66.19
2023-01-12T02:24:08.748Z,66.38
2023-01-12T02:28:34.601Z,65.80
2023-01-12T02:33:07.619Z,65.06
2023-01-12T02:37:26.798Z,64.80
2023-01-12T02:42:29.667Z,64.97
2023-01-12T02:46:32.175Z,65.65
2023-01-12T02:50:51.008Z,65.90
2023-01-12T02:54:53.793Z,65.96
2023-01-12T02:58:59.296Z,66.11
2023-01-12T03:03:01.022Z,66.72
2023-01-12T03:07:03.242Z,66.63
2023-01-12T03:11:15.629Z,67.03
2023-01-12T03:15:19.395Z,67.15
2023-01-12T03:19:27.844Z,66.96
2023-01-12T03:23:45.392Z,66.91
2023-01-12T03:27:52.760Z,66.70
2023-01-12T03:31:55.763Z,66.99
2023-01-12T03:36:07.910Z,67.43
2023-01-12T03:40:28.858Z,67.01
2023-01-12T03:44:45.399Z,67.44
2023-01-12T03:49:06.365Z,67.27
2023-01-12T03:53:09.463Z,66.53
2023-01-12T03:57:13.273Z,66.31
2023-01-12T04:01:15.172Z,66.69
2023-01-12T04:05:16.945Z,67.11
2023-01-12T04:09:18.558Z,67.51
2023-01-12T04:13:20.040Z,67.32
2023-01-12T04:17:25.001Z,67.14
2023-01-12T04:21:44.956Z,67.34
2023-01-12T04:25:46.560Z,67.53
2023-01-12T04:29:48.096Z,67.62
2023-01-12T04:33:49.692Z,67.72
2023-01-12T04:37:52.403Z,66.95
2023-01-12T04:41:54.242Z,67.10
2023-01-12T04:45:55.723Z,66.77
2023-01-12T04:49:57.206Z,66.74
2023-01-12T04:53:58.807Z,67.04
2023-01-12T04:58:00.574Z,67.22
2023-01-12T05:02:02.188Z,67.02
2023-01-12T05:06:04.835Z,67.15
2023-01-12T05:10:25.038Z,67.43
2023-01-12T05:14:26.669Z,67.63
2023-01-12T05:18:28.255Z,67.17
2023-01-12T05:22:31.347Z,67.42
2023-01-12T05:26:32.923Z,67.73
2023-01-12T05:30:34.383Z,67.33
2023-01-12T05:34:35.939Z,67.83
2023-01-12T05:38:37.457Z,67.62
2023-01-12T05:42:57.871Z,67.01
2023-01-12T05:46:59.544Z,67.35
2023-01-12T05:51:04.596Z,67.42
2023-01-12T05:55:06.799Z,67.33
2023-01-12T05:59:10.721Z,67.44
2023-01-12T06:03:12.241Z,66.61
2023-01-12T06:07:15.608Z,66.80
2023-01-12T06:11:35.764Z,67.10
2023-01-12T06:15:37.267Z,67.64
2023-01-12T06:19:38.975Z,67.61
2023-01-12T06:23:40.527Z,68.07
2023-01-12T06:27:42.050Z,67.40
2023-01-12T06:31:43.923Z,67.58
2023-01-12T06:35:49.235Z,68.45
2023-01-12T06:39:50.800Z,68.40
2023-01-12T06:43:52.361Z,68.88
2023-01-12T06:47:53.844Z,69.16
2023-01-12T06:51:55.356Z,69.71
2023-01-12T06:55:56.844Z,69.90
2023-01-12T06:59:58.438Z,69.90
2023-01-12T07:03:59.978Z,69.96
2023-01-12T07:08:01.738Z,68.95
2023-01-12T07:12:04.872Z,69.13
2023-01-12T07:16:07.403Z,68.54
2023-01-12T07:20:09.785Z,68.26
2023-01-12T07:24:11.869Z,67.38
2023-01-12T07:28:13.664Z,66.27
2023-01-12T07:32:15.196Z,66.53
2023-01-12T07:36:16.901Z,66.29
2023-01-12T07:40:18.551Z,66.17
2023-01-12T07:44:20.286Z,65.86
2023-01-12T07:48:22.462Z,65.56
2023-01-12T07:52:24.056Z,65.96
2023-01-12T07:56:25.631Z,65.68
2023-01-12T08:00:28.113Z,65.59
2023-01-12T08:04:29.686Z,65.26
2023-01-12T08:08:31.276Z,65.00
2023-01-12T08:12:32.794Z,65.36
2023-01-12T08:16:40.983Z,65.09
2023-01-12T08:20:43.047Z,65.33
2023-01-12T08:24:52.039Z,64.61
2023-01-12T08:29:02.367Z,63.25
2023-01-12T08:33:04.188Z,62.20
2023-01-12T08:37:40.025Z,60.15
2023-01-12T08:42:32.114Z,60.11
2023-01-12T08:47:27.174Z,58.96
2023-01-12T08:57:28.661Z,57.44
2023-01-12T09:02:04.447Z,57.34
2023-01-12T09:06:18.974Z,57.12
2023-01-12T09:10:20.478Z,57.90
2023-01-12T09:15:11.902Z,58.08
2023-01-12T09:19:13.444Z,58.20
2023-01-12T09:23:52.619Z,57.91
2023-01-12T09:28:23.336Z,58.15
2023-01-12T09:32:29.123Z,58.10
2023-01-12T09:36:40.035Z,57.83
2023-01-12T09:40:43.425Z,58.07
2023-01-12T09:45:53.903Z,58.19
2023-01-12T09:50:46.226Z,57.38
2023-01-12T09:54:51.284Z,57.78
2023-01-12T09:59:03.945Z,57.99
2023-01-12T10:03:30.854Z,58.05
2023-01-12T10:13:59.097Z,57.62
2023-01-12T10:18:29.323Z,57.49
2023-01-12T10:22:42.113Z,57.77
2023-01-12T10:26:45.049Z,57.50
2023-01-12T10:30:46.707Z,57.33
2023-01-12T10:34:51.441Z,57.67
2023-01-12T10:39:00.874Z,57.91
2023-01-12T10:43:34.063Z,58.32
2023-01-12T10:47:35.654Z,57.10
2023-01-12T10:52:26.963Z,57.24
2023-01-12T10:56:35.678Z,57.19
2023-01-12T11:00:37.333Z,56.80
2023-01-12T11:05:34.007Z,57.14
2023-01-12T11:09:36.137Z,56.98
2023-01-12T11:14:52.830Z,57.25
2023-01-12T11:19:06.898Z,57.15
2023-01-12T11:23:19.851Z,57.36
2023-01-12T11:27:50.814Z,58.11
2023-01-12T11:31:58.792Z,58.63
2023-01-12T11:36:09.157Z,58.59
2023-01-12T11:40:29.253Z,58.31
2023-01-12T11:45:07.132Z,59.41
2023-01-12T11:49:41.449Z,61.43
2023-01-12T11:53:43.676Z,66.78
2023-01-12T11:58:23.170Z,70.66
2023-01-12T12:03:14.930Z,75.06
2023-01-12T12:13:15.994Z,73.01
2023-01-12T12:17:48.115Z,74.09
2023-01-12T12:22:07.874Z,70.84
2023-01-12T12:26:33.640Z,73.73
2023-01-12T12:31:09.177Z,73.49
2023-01-12T12:35:29.064Z,72.00
2023-01-12T12:39:47.625Z,72.90
2023-01-12T12:44:19.490Z,74.10
2023-01-12T12:48:53.103Z,74.38
2023-01-12T12:53:22.893Z,79.82
2023-01-12T12:58:15.111Z,79.44
2023-01-12T13:02:52.531Z,80.92
2023-01-12T13:06:54.146Z,83.68
2023-01-12T13:10:58.733Z,84.64
2023-01-12T13:15:25.935Z,85.87
2023-01-12T13:19:35.913Z,83.90
2023-01-12T13:23:49.139Z,84.49
2023-01-12T13:28:19.273Z,85.59
2023-01-12T13:32:57.015Z,85.31
2023-01-12T13:37:23.728Z,85.49
2023-01-12T13:41:54.081Z,86.06
2023-01-12T13:46:01.114Z,84.75
2023-01-12T13:50:04.150Z,83.90
2023-01-12T13:54:47.798Z,84.21
2023-01-12T13:59:17.300Z,83.46
2023-01-12T14:03:56.139Z,85.82
2023-01-12T14:08:51.784Z,85.67
2023-01-12T14:18:41.547Z,85.93
2023-01-12T14:23:11.260Z,83.31
2023-01-12T14:27:39.208Z,83.07
2023-01-12T14:31:48.285Z,84.03
2023-01-12T14:35:55.225Z,85.13
2023-01-12T14:40:45.111Z,82.10
2023-01-12T14:45:09.280Z,83.99
2023-01-12T14:49:29.864Z,84.31
2023-01-12T14:53:35.505Z,84.68
2023-01-12T14:57:37.124Z,84.12
2023-01-12T15:01:39.608Z,83.18
2023-01-12T15:05:42.253Z,84.54
2023-01-12T15:10:23.793Z,84.06
2023-01-12T15:14:28.997Z,82.45
2023-01-12T15:18:49.167Z,83.38
2023-01-12T15:23:09.552Z,83.65
2023-01-12T15:27:27.015Z,84.49
2023-01-12T15:32:19.152Z,83.46
2023-01-12T15:36:46.169Z,82.16
2023-01-12T15:41:45.285Z,82.69
2023-01-12T15:46:02.141Z,79.61
2023-01-12T15:50:53.823Z,79.56
2023-01-12T15:55:46.156Z,79.55
2023-01-12T16:00:37.928Z,79.72
2023-01-12T16:05:29.976Z,81.55
2023-01-12T16:09:31.702Z,79.95
2023-01-12T16:13:33.389Z,77.59
2023-01-12T16:17:35.541Z,78.34
2023-01-12T16:27:05.841Z,79.22
2023-01-12T16:31:10.044Z,78.98
2023-01-12T16:35:15.532Z,79.15
2023-01-12T16:39:20.219Z,77.59
2023-01-12T16:49:16.161Z,76.46
2023-01-12T16:53:17.662Z,76.28
2023-01-12T17:04:05.260Z,73.06
2023-01-12T17:13:41.937Z,73.52
2023-01-12T17:17:43.662Z,72.70
2023-01-12T17:22:35.882Z,72.06
2023-01-12T17:27:28.049Z,72.90
2023-01-12T17:31:56.721Z,72.13
2023-01-12T17:36:14.845Z,72.27
2023-01-12T17:40:16.807Z,72.17
2023-01-12T17:44:52.213Z,71.68
2023-01-12T17:48:59.721Z,71.64
2023-01-12T17:53:29.347Z,71.21
2023-01-12T17:57:31.828Z,72.00
2023-01-12T18:13:00.121Z,70.18
2023-01-12T18:17:53.145Z,69.69
2023-01-12T18:40:02.509Z,69.01
2023-01-12T18:44:35.147Z,68.80
2023-01-12T18:49:05.005Z,70.14
2023-01-12T18:53:25.010Z,69.49
2023-01-12T18:57:52.874Z,69.33
2023-01-12T19:01:55.756Z,69.63
2023-01-12T19:06:22.459Z,71.42
2023-01-12T19:10:24.568Z,73.73
2023-01-12T19:14:45.600Z,71.92
2023-01-12T19:18:47.062Z,71.65
2023-01-12T19:23:07.464Z,71.53
2023-01-12T19:27:31.186Z,70.50
2023-01-12T19:31:32.949Z,68.89
2023-01-12T19:36:10.094Z,68.80
2023-01-12T19:41:10.766Z,69.28
2023-01-12T19:45:12.360Z,68.19
2023-01-12T19:49:17.147Z,67.94
2023-01-12T19:54:08.822Z,68.07
2023-01-12T19:59:01.114Z,67.44
2023-01-12T20:03:03.384Z,67.93
2023-01-12T20:07:04.971Z,66.69
2023-01-12T20:11:09.289Z,66.53
2023-01-12T20:15:11.568Z,66.18
2023-01-12T20:19:13.181Z,67.14
2023-01-12T20:24:04.831Z,68.30
2023-01-12T20:28:57.144Z,70.16
2023-01-12T20:33:48.971Z,69.52
2023-01-12T20:37:51.263Z,68.29
2023-01-12T20:41:52.800Z,68.91
2023-01-12T20:45:54.477Z,67.81
2023-01-12T20:49:57.016Z,66.36
2023-01-12T20:54:01.835Z,66.11
2023-01-12T20:58:03.330Z,65.21
2023-01-12T21:08:08.206Z,64.74
2023-01-12T21:12:11.055Z,64.19
2023-01-12T21:16:16.123Z,64.87
2023-01-12T21:20:17.985Z,64.20
2023-01-12T21:24:53.746Z,65.15
2023-01-12T21:28:55.481Z,64.37
2023-01-12T21:33:09.100Z,63.42
2023-01-12T21:37:11.127Z,63.88
2023-01-12T21:41:17.107Z,64.37
2023-01-12T21:45:48.378Z,63.71
2023-01-12T21:50:23.859Z,63.15
2023-01-12T21:55:15.809Z,63.18
2023-01-12T22:00:07.889Z,63.43
2023-01-12T22:04:42.016Z,63.93
2023-01-12T22:09:17.688Z,63.05
2023-01-12T22:13:19.320Z,62.70
2023-01-12T22:17:20.863Z,62.13
2023-01-12T22:21:22.660Z,63.05
2023-01-12T22:25:24.715Z,62.23
2023-01-12T22:29:26.298Z,61.89
2023-01-12T22:33:27.991Z,62.60
2023-01-12T22:37:30.479Z,62.03
2023-01-12T22:41:32.076Z,62.22
2023-01-12T22:45:37.375Z,62.96
2023-01-12T22:49:39.721Z,64.15
2023-01-12T22:53:41.379Z,62.60
2023-01-12T22:57:42.816Z,62.32
2023-01-12T23:07:44.272Z,61.83
2023-01-12T23:11:46.077Z,62.79
2023-01-12T23:15:55.527Z,61.84
2023-01-12T23:19:57.086Z,62.98
2023-01-12T23:24:00.162Z,62.16
2023-01-12T23:28:02.681Z,62.75
2023-01-12T23:32:05.391Z,62.50
2023-01-12T23:36:13.620Z,62.55
2023-01-12T23:40:15.405Z,62.40
2023-01-12T23:44:17.473Z,62.33
2023-01-12T23:48:19.315Z,62.81
2023-01-12T23:52:20.817Z,62.31
2023-01-12T23:56:23.544Z,62.32
